createdAt,value
2023-05-10T00:01:18.843Z,50.49
2023-05-10T00:02:52.291Z,49.83
2023-05-10T00:04:28.695Z,49.62
2023-05-10T00:06:02.065Z,49.59
2023-05-10T00:07:35.729Z,49.65
2023-05-10T00:09:08.907Z,49.27
2023-05-10T00:10:42.350Z,49.12
2023-05-10T00:12:15.771Z,48.61
2023-05-10T00:13:49.291Z,48.58
2023-05-10T00:15:22.870Z,48.89
2023-05-10T00:16:56.325Z,49.04
2023-05-10T00:18:29.391Z,48.80
2023-05-10T00:20:02.937Z,48.72
2023-05-10T00:21:36.081Z,48.98
2023-05-10T00:23:09.637Z,49.11
2023-05-10T00:24:42.741Z,48.94
2023-05-10T00:26:18.083Z,49.16
2023-05-10T00:27:58.549Z,48.96
2023-05-10T00:29:33.067Z,49.00
2023-05-10T00:31:06.097Z,48.63
2023-05-10T00:32:39.491Z,48.67
2023-05-10T00:34:12.583Z,48.74
2023-05-10T00:35:46.023Z,48.85
2023-05-10T00:37:19.249Z,49.33
2023-05-10T00:38:52.994Z,49.40
2023-05-10T00:40:26.286Z,49.63
2023-05-10T00:42:05.913Z,49.61
2023-05-10T00:43:39.397Z,50.05
2023-05-10T00:45:13.163Z,49.85
2023-05-10T00:46:46.734Z,49.85
2023-05-10T00:48:20.979Z,49.99
2023-05-10T00:49:54.383Z,50.10
2023-05-10T00:51:28.082Z,50.16
2023-05-10T00:53:02.972Z,50.39
2023-05-10T00:54:36.598Z,50.06
2023-05-10T00:56:09.910Z,50.13
2023-05-10T00:57:43.550Z,49.97
2023-05-10T00:59:20.426Z,50.07
2023-05-10T01:00:54.115Z,49.79
2023-05-10T01:02:27.511Z,49.69
2023-05-10T01:04:01.498Z,49.62
2023-05-10T01:05:34.793Z,49.42
2023-05-10T01:07:08.140Z,49.02
2023-05-10T01:08:42.193Z,48.99
2023-05-10T01:10:16.103Z,48.72
2023-05-10T01:11:50.789Z,48.82
2023-05-10T01:13:39.107Z,48.54
2023-05-10T01:15:17.709Z,48.62
2023-05-10T01:16:51.927Z,48.49
2023-05-10T01:18:25.692Z,48.43
2023-05-10T01:19:58.915Z,48.02
2023-05-10T01:21:45.737Z,48.04
2023-05-10T01:23:30.260Z,47.72
2023-05-10T01:25:15.336Z,48.00
2023-05-10T01:27:13.591Z,47.62
2023-05-10T01:29:35.585Z,47.25
2023-05-10T01:31:36.216Z,47.12
2023-05-10T01:33:20.048Z,46.82
2023-05-10T01:35:20.124Z,46.45
2023-05-10T01:36:59.234Z,46.64
2023-05-10T01:38:57.681Z,46.21
2023-05-10T01:40:37.905Z,45.74
2023-05-10T01:42:40.875Z,45.47
2023-05-10T01:44:33.045Z,44.66
2023-05-10T01:46:19.315Z,44.62
2023-05-10T01:48:11.736Z,44.08
2023-05-10T01:49:56.043Z,44.08
2023-05-10T01:51:37.678Z,43.78
2023-05-10T01:53:13.007Z,42.83
2023-05-10T01:55:01.929Z,42.72
2023-05-10T01:56:41.585Z,42.47
2023-05-10T01:58:24.460Z,42.35
2023-05-10T01:59:58.872Z,42.08
2023-05-10T02:01:33.267Z,42.08
2023-05-10T02:03:10.021Z,42.20
2023-05-10T02:04:46.524Z,41.88
2023-05-10T02:06:21.930Z,41.88
2023-05-10T02:07:55.793Z,41.61
2023-05-10T02:09:31.846Z,41.50
2023-05-10T02:11:06.681Z,41.66
2023-05-10T02:12:45.647Z,41.55
2023-05-10T02:14:20.565Z,41.36
2023-05-10T02:15:56.197Z,41.48
2023-05-10T02:17:32.148Z,41.59
2023-05-10T02:19:06.141Z,41.50
2023-05-10T02:20:41.169Z,41.16
2023-05-10T02:22:14.891Z,41.23
2023-05-10T02:23:52.528Z,41.37
2023-05-10T02:25:28.547Z,41.47
2023-05-10T02:27:03.995Z,40.93
2023-05-10T02:28:39.038Z,40.98
2023-05-10T02:30:14.543Z,41.03
2023-05-10T02:31:49.109Z,40.97
2023-05-10T02:33:23.625Z,40.96
2023-05-10T02:34:58.853Z,40.90
2023-05-10T02:36:32.817Z,40.81
2023-05-10T02:38:08.155Z,40.65
2023-05-10T02:39:45.238Z,40.55
2023-05-10T02:41:19.792Z,40.52
2023-05-10T02:42:56.131Z,40.23
2023-05-10T02:44:32.517Z,40.16
2023-05-10T02:46:06.029Z,39.72
2023-05-10T02:47:40.259Z,40.17
2023-05-10T02:49:14.018Z,40.20
2023-05-10T02:50:52.709Z,40.09
2023-05-10T02:52:32.681Z,39.70
2023-05-10T02:54:14.186Z,40.02
2023-05-10T02:55:53.431Z,39.33
2023-05-10T02:57:35.931Z,39.10
2023-05-10T02:59:09.255Z,39.25
2023-05-10T03:00:42.525Z,38.81
2023-05-10T03:02:15.851Z,38.81
2023-05-10T03:03:49.150Z,38.63
2023-05-10T03:05:22.819Z,38.14
2023-05-10T03:06:56.432Z,38.24
2023-05-10T03:08:30.831Z,37.89
2023-05-10T03:10:05.079Z,37.74
2023-05-10T03:11:42.977Z,37.66
2023-05-10T03:13:36.867Z,37.63
2023-05-10T03:15:21.774Z,37.36
2023-05-10T03:17:17.534Z,37.12
2023-05-10T03:19:14.263Z,36.73
2023-05-10T03:20:57.104Z,36.55
2023-05-10T03:22:33.951Z,36.29
2023-05-10T03:24:09.683Z,36.01
2023-05-10T03:25:45.183Z,36.32
2023-05-10T03:27:19.324Z,35.71
2023-05-10T03:28:54.015Z,35.16
2023-05-10T03:30:30.812Z,35.57
2023-05-10T03:32:04.258Z,35.04
2023-05-10T03:33:48.332Z,35.07
2023-05-10T03:35:25.135Z,35.28
2023-05-10T03:36:58.521Z,34.59
2023-05-10T03:38:33.832Z,34.64
2023-05-10T03:40:07.733Z,34.49
2023-05-10T03:41:43.164Z,34.29
2023-05-10T03:43:16.364Z,34.29
2023-05-10T03:44:50.902Z,34.32
2023-05-10T03:46:24.280Z,33.95
2023-05-10T03:47:58.334Z,33.72
2023-05-10T03:49:31.979Z,33.40
2023-05-10T03:51:05.860Z,32.87
2023-05-10T03:52:40.556Z,32.42
2023-05-10T03:54:14.210Z,31.62
2023-05-10T03:55:47.847Z,31.54
2023-05-10T03:57:21.023Z,31.90
2023-05-10T03:58:54.542Z,32.08
2023-05-10T04:00:27.706Z,31.85
2023-05-10T04:02:02.336Z,32.00
2023-05-10T04:03:38.028Z,31.91
2023-05-10T04:05:12.702Z,32.12
2023-05-10T04:06:46.532Z,32.16
2023-05-10T04:08:20.058Z,32.09
2023-05-10T04:09:53.581Z,31.92
2023-05-10T04:11:29.417Z,32.00
2023-05-10T04:13:02.656Z,32.44
2023-05-10T04:14:35.998Z,32.12
2023-05-10T04:16:09.273Z,32.11
2023-05-10T04:17:42.549Z,32.06
2023-05-10T04:19:15.833Z,31.98
2023-05-10T04:20:49.001Z,31.76
2023-05-10T04:22:22.295Z,31.66
2023-05-10T04:23:55.628Z,31.58
2023-05-10T04:25:28.937Z,31.13
2023-05-10T04:27:02.265Z,31.30
2023-05-10T04:28:35.458Z,31.01
2023-05-10T04:30:09.149Z,30.88
2023-05-10T04:31:42.258Z,31.09
2023-05-10T04:33:16.034Z,30.88
2023-05-10T04:34:49.270Z,30.63
2023-05-10T04:36:22.688Z,29.20
2023-05-10T04:37:56.269Z,28.59
2023-05-10T04:39:29.452Z,28.17
2023-05-10T04:41:07.589Z,27.81
2023-05-10T04:42:43.031Z,28.06
2023-05-10T04:44:16.400Z,28.25
2023-05-10T04:45:49.829Z,28.22
2023-05-10T04:47:22.938Z,28.19
2023-05-10T04:48:56.339Z,28.59
2023-05-10T04:50:29.558Z,28.75
2023-05-10T04:52:02.952Z,29.17
2023-05-10T04:53:36.210Z,29.16
2023-05-10T04:55:11.164Z,28.98
2023-05-10T04:56:44.503Z,29.03
2023-05-10T04:58:17.994Z,29.31
2023-05-10T04:59:51.441Z,29.20
2023-05-10T05:01:24.911Z,29.25
2023-05-10T05:02:58.389Z,29.28
2023-05-10T05:04:32.418Z,29.31
2023-05-10T05:06:05.795Z,29.57
2023-05-10T05:07:41.651Z,29.88
2023-05-10T05:09:14.860Z,30.24
2023-05-10T05:10:51.486Z,30.80
2023-05-10T05:12:24.988Z,30.79
2023-05-10T05:14:00.465Z,30.83
2023-05-10T05:15:33.718Z,30.82
2023-05-10T05:17:07.292Z,31.02
2023-05-10T05:18:41.023Z,31.29
2023-05-10T05:20:14.779Z,31.46
2023-05-10T05:21:48.123Z,31.65
2023-05-10T05:23:22.255Z,31.47
2023-05-10T05:24:56.127Z,31.61
2023-05-10T05:26:29.310Z,31.80
2023-05-10T05:28:03.001Z,32.15
2023-05-10T05:29:36.447Z,32.26
2023-05-10T05:31:09.978Z,32.68
2023-05-10T05:32:43.621Z,32.86
2023-05-10T05:34:16.784Z,32.98
2023-05-10T05:35:52.070Z,32.96
2023-05-10T05:37:25.774Z,33.09
2023-05-10T05:38:59.324Z,33.14
2023-05-10T05:40:32.596Z,33.14
2023-05-10T05:42:06.574Z,33.32
2023-05-10T05:43:39.809Z,33.01
2023-05-10T05:45:15.018Z,33.34
2023-05-10T05:46:48.263Z,33.22
2023-05-10T05:48:21.740Z,33.37
2023-05-10T05:49:55.255Z,33.35
2023-05-10T05:51:28.453Z,33.53
2023-05-10T05:53:01.625Z,33.56
2023-05-10T05:54:35.755Z,33.61
2023-05-10T05:56:09.420Z,33.43
2023-05-10T05:57:42.899Z,33.74
2023-05-10T05:59:16.040Z,33.78
2023-05-10T06:00:49.869Z,33.91
2023-05-10T06:02:23.247Z,33.89
2023-05-10T06:03:56.635Z,33.94
2023-05-10T06:05:29.994Z,33.91
2023-05-10T06:07:03.273Z,33.71
2023-05-10T06:08:36.712Z,33.95
2023-05-10T06:10:11.121Z,33.98
2023-05-10T06:11:44.199Z,34.04
2023-05-10T06:13:17.729Z,34.03
2023-05-10T06:14:50.973Z,34.12
2023-05-10T06:16:25.000Z,33.84
2023-05-10T06:17:58.239Z,34.04
2023-05-10T06:19:32.121Z,33.73
2023-05-10T06:21:05.452Z,33.67
2023-05-10T06:22:38.525Z,33.50
2023-05-10T06:24:11.711Z,33.27
2023-05-10T06:25:45.191Z,32.97
2023-05-10T06:27:18.600Z,33.11
2023-05-10T06:28:51.929Z,33.15
2023-05-10T06:30:30.369Z,32.99
2023-05-10T06:32:04.583Z,33.37
2023-05-10T06:33:37.938Z,33.35
2023-05-10T06:35:11.472Z,33.43
2023-05-10T06:36:44.595Z,33.45
2023-05-10T06:38:17.976Z,33.43
2023-05-10T06:39:51.024Z,33.37
2023-05-10T06:41:25.172Z,33.55
2023-05-10T06:42:58.602Z,33.28
2023-05-10T06:44:32.127Z,33.16
2023-05-10T06:46:05.177Z,33.13
2023-05-10T06:47:39.396Z,33.36
2023-05-10T06:49:12.884Z,33.37
2023-05-10T06:50:46.391Z,33.31
2023-05-10T06:52:24.916Z,33.25
2023-05-10T06:54:01.790Z,33.58
2023-05-10T06:55:35.045Z,33.47
2023-05-10T06:57:16.131Z,33.58
2023-05-10T06:58:57.143Z,33.52
2023-05-10T07:00:30.330Z,33.59
2023-05-10T07:02:03.626Z,33.56
2023-05-10T07:03:36.991Z,33.51
2023-05-10T07:05:10.626Z,33.70
2023-05-10T07:06:44.207Z,33.58
2023-05-10T07:08:17.247Z,33.83
2023-05-10T07:09:53.632Z,33.91
2023-05-10T07:11:27.214Z,33.50
2023-05-10T07:13:00.703Z,33.49
2023-05-10T07:14:33.983Z,33.53
2023-05-10T07:16:07.811Z,33.61
2023-05-10T07:17:43.229Z,33.78
2023-05-10T07:19:18.233Z,33.83
2023-05-10T07:20:51.255Z,33.65
2023-05-10T07:22:24.481Z,33.70
2023-05-10T07:23:57.768Z,33.68
2023-05-10T07:25:31.331Z,33.80
2023-05-10T07:27:04.596Z,33.98
2023-05-10T07:28:41.736Z,33.98
2023-05-10T07:30:15.386Z,33.99
2023-05-10T07:31:48.793Z,33.94
2023-05-10T07:33:21.995Z,33.71
2023-05-10T07:34:55.877Z,33.93
2023-05-10T07:36:29.188Z,33.82
2023-05-10T07:38:03.155Z,33.58
2023-05-10T07:39:36.299Z,33.56
2023-05-10T07:41:09.785Z,33.37
2023-05-10T07:42:42.838Z,33.38
2023-05-10T07:44:16.279Z,33.63
2023-05-10T07:45:49.929Z,33.45
2023-05-10T07:47:23.680Z,33.78
2023-05-10T07:48:57.136Z,33.68
2023-05-10T07:50:30.771Z,33.45
2023-05-10T07:52:05.225Z,33.53
2023-05-10T07:53:39.384Z,33.34
2023-05-10T07:55:12.682Z,33.70
2023-05-10T07:56:48.829Z,33.71
2023-05-10T07:58:21.992Z,33.70
2023-05-10T07:59:55.228Z,33.40
2023-05-10T08:01:31.700Z,33.01
2023-05-10T08:03:05.359Z,33.13
2023-05-10T08:04:38.695Z,33.26
2023-05-10T08:06:12.010Z,33.52
2023-05-10T08:07:45.397Z,33.48
2023-05-10T08:09:19.422Z,33.47
2023-05-10T08:10:53.270Z,33.34
2023-05-10T08:12:26.665Z,33.35
2023-05-10T08:14:00.338Z,33.25
2023-05-10T08:15:33.693Z,33.25
2023-05-10T08:17:07.145Z,33.18
2023-05-10T08:18:41.302Z,33.19
2023-05-10T08:20:18.015Z,32.34
2023-05-10T08:21:51.250Z,32.61
2023-05-10T08:23:24.520Z,32.76
2023-05-10T08:24:57.737Z,32.68
2023-05-10T08:26:30.816Z,32.80
2023-05-10T08:28:03.990Z,32.63
2023-05-10T08:29:49.502Z,32.49
2023-05-10T08:31:23.416Z,32.46
2023-05-10T08:32:57.164Z,32.96
2023-05-10T08:34:32.723Z,32.76
2023-05-10T08:36:06.285Z,32.63
2023-05-10T08:37:40.571Z,32.34
2023-05-10T08:39:29.299Z,32.30
2023-05-10T08:41:05.087Z,32.42
2023-05-10T08:42:42.005Z,32.63
2023-05-10T08:44:16.381Z,32.39
2023-05-10T08:45:51.675Z,32.83
2023-05-10T08:47:26.631Z,32.56
2023-05-10T08:49:03.566Z,32.98
2023-05-10T08:50:42.400Z,32.71
2023-05-10T08:52:18.075Z,32.89
2023-05-10T08:53:51.690Z,32.75
2023-05-10T08:55:25.685Z,32.94
2023-05-10T08:56:58.732Z,32.29
2023-05-10T08:58:33.101Z,32.48
2023-05-10T09:00:07.225Z,32.57
2023-05-10T09:01:44.074Z,32.27
2023-05-10T09:03:18.438Z,32.36
2023-05-10T09:04:54.995Z,32.16
2023-05-10T09:06:30.142Z,32.49
2023-05-10T09:08:04.200Z,32.25
2023-05-10T09:09:41.811Z,32.05
2023-05-10T09:11:18.984Z,31.94
2023-05-10T09:12:53.439Z,31.92
2023-05-10T09:14:26.894Z,32.22
2023-05-10T09:16:09.887Z,32.02
2023-05-10T09:17:54.008Z,32.52
2023-05-10T09:19:27.572Z,32.38
2023-05-10T09:21:00.865Z,32.52
2023-05-10T09:22:34.991Z,32.51
2023-05-10T09:24:09.509Z,32.67
2023-05-10T09:25:45.541Z,32.32
2023-05-10T09:27:18.689Z,32.48
2023-05-10T09:29:00.791Z,32.56
2023-05-10T09:30:34.384Z,32.69
2023-05-10T09:32:07.714Z,32.39
2023-05-10T09:33:50.681Z,32.47
2023-05-10T09:35:29.900Z,32.39
2023-05-10T09:37:05.722Z,32.26
2023-05-10T09:38:52.707Z,32.00
2023-05-10T09:40:27.670Z,32.10
2023-05-10T09:42:07.961Z,32.21
2023-05-10T09:43:41.783Z,32.14
2023-05-10T09:45:15.412Z,32.08
2023-05-10T09:46:54.122Z,31.99
2023-05-10T09:48:27.283Z,32.03
2023-05-10T09:50:04.912Z,31.91
2023-05-10T09:51:38.905Z,31.97
2023-05-10T09:53:20.513Z,32.11
2023-05-10T09:54:55.648Z,32.24
2023-05-10T09:56:40.429Z,32.39
2023-05-10T09:58:15.567Z,32.24
2023-05-10T09:59:52.453Z,31.97
2023-05-10T10:01:28.307Z,31.81
2023-05-10T10:03:02.093Z,32.03
2023-05-10T10:04:41.284Z,32.30
2023-05-10T10:06:29.592Z,32.40
2023-05-10T10:08:07.776Z,32.24
2023-05-10T10:09:41.575Z,32.55
2023-05-10T10:11:15.221Z,32.28
2023-05-10T10:12:48.546Z,31.98
2023-05-10T10:14:25.900Z,32.14
2023-05-10T10:15:59.752Z,32.11
2023-05-10T10:17:34.111Z,32.39
2023-05-10T10:19:08.248Z,32.58
2023-05-10T10:20:41.912Z,32.45
2023-05-10T10:22:15.244Z,32.68
2023-05-10T10:23:48.518Z,32.67
2023-05-10T10:25:25.972Z,32.77
2023-05-10T10:27:21.784Z,32.98
2023-05-10T10:29:25.244Z,33.38
2023-05-10T10:31:05.546Z,33.55
2023-05-10T10:33:16.499Z,33.45
2023-05-10T10:35:00.394Z,33.58
2023-05-10T10:36:35.267Z,33.42
2023-05-10T10:38:10.726Z,33.61
2023-05-10T10:39:43.768Z,33.37
2023-05-10T10:41:45.160Z,33.35
2023-05-10T10:43:29.362Z,33.58
2023-05-10T10:45:15.597Z,33.20
2023-05-10T10:47:24.316Z,33.30
2023-05-10T10:49:13.015Z,33.31
2023-05-10T10:50:47.839Z,33.23
2023-05-10T10:52:39.829Z,33.30
2023-05-10T10:54:14.698Z,33.55
2023-05-10T10:55:49.590Z,33.61
2023-05-10T10:57:27.633Z,33.48
2023-05-10T10:59:01.577Z,33.22
2023-05-10T11:00:39.342Z,32.80
2023-05-10T11:02:36.372Z,32.85
2023-05-10T11:04:09.802Z,33.23
2023-05-10T11:05:47.954Z,33.37
2023-05-10T11:07:21.589Z,33.53
2023-05-10T11:08:54.860Z,33.34
2023-05-10T11:10:28.922Z,33.04
2023-05-10T11:12:09.578Z,33.04
2023-05-10T11:13:50.012Z,33.19
2023-05-10T11:15:31.852Z,33.31
2023-05-10T11:17:25.523Z,33.22
2023-05-10T11:19:03.949Z,32.71
2023-05-10T11:20:43.368Z,32.92
2023-05-10T11:22:16.710Z,32.68
2023-05-10T11:23:57.573Z,32.65
2023-05-10T11:25:33.204Z,32.76
2023-05-10T11:27:07.464Z,32.80
2023-05-10T11:28:48.169Z,32.33
2023-05-10T11:30:21.923Z,32.61
2023-05-10T11:31:59.454Z,32.62
2023-05-10T11:33:55.146Z,32.59
2023-05-10T11:35:30.047Z,32.48
2023-05-10T11:37:03.220Z,32.49
2023-05-10T11:38:36.530Z,32.59
2023-05-10T11:40:11.048Z,32.37
2023-05-10T11:41:44.284Z,32.33
2023-05-10T11:43:17.467Z,32.44
2023-05-10T11:44:50.637Z,32.75
2023-05-10T11:46:28.898Z,32.67
2023-05-10T11:48:03.630Z,33.07
2023-05-10T11:49:42.802Z,33.08
2023-05-10T11:51:26.725Z,32.83
2023-05-10T11:53:00.151Z,32.83
2023-05-10T11:54:36.355Z,32.80
2023-05-10T11:56:11.677Z,32.66
2023-05-10T11:57:47.343Z,32.57
2023-05-10T11:59:20.941Z,32.59
2023-05-10T12:00:57.372Z,32.39
2023-05-10T12:02:31.685Z,32.66
2023-05-10T12:04:05.272Z,32.43
2023-05-10T12:05:41.589Z,32.80
2023-05-10T12:07:19.122Z,32.66
2023-05-10T12:08:54.884Z,32.97
2023-05-10T12:10:28.671Z,32.95
2023-05-10T12:12:03.843Z,32.86
2023-05-10T12:13:42.019Z,33.28
2023-05-10T12:15:23.211Z,33.31
2023-05-10T12:16:58.814Z,33.34
2023-05-10T12:18:31.950Z,32.96
2023-05-10T12:20:34.633Z,33.17
2023-05-10T12:22:11.399Z,32.30
2023-05-10T12:23:47.265Z,32.44
2023-05-10T12:25:21.841Z,32.65
2023-05-10T12:28:46.611Z,32.35
2023-05-10T12:30:27.216Z,32.48
2023-05-10T12:32:01.602Z,32.50
2023-05-10T12:33:45.320Z,32.34
2023-05-10T12:35:18.852Z,32.53
2023-05-10T12:36:54.357Z,32.69
2023-05-10T12:38:30.856Z,32.73
2023-05-10T12:40:06.349Z,32.96
2023-05-10T12:41:40.897Z,32.91
2023-05-10T12:43:16.292Z,33.13
2023-05-10T12:44:49.509Z,33.26
2023-05-10T12:46:22.676Z,32.92
2023-05-10T12:47:56.393Z,32.92
2023-05-10T12:49:29.686Z,32.72
2023-05-10T12:51:04.073Z,32.98
2023-05-10T12:52:37.591Z,33.01
2023-05-10T12:54:11.279Z,32.57
2023-05-10T12:55:45.376Z,32.64
2023-05-10T12:57:18.644Z,32.71
2023-05-10T12:58:52.368Z,32.68
2023-05-10T13:00:25.906Z,33.12
2023-05-10T13:01:59.615Z,33.14
2023-05-10T13:03:33.495Z,33.28
2023-05-10T13:05:07.432Z,33.26
2023-05-10T13:06:40.999Z,33.33
2023-05-10T13:08:14.123Z,33.54
2023-05-10T13:09:47.393Z,33.72
2023-05-10T13:11:22.342Z,33.81
2023-05-10T13:12:56.034Z,33.67
2023-05-10T13:14:29.671Z,33.58
2023-05-10T13:16:03.182Z,33.67
2023-05-10T13:17:36.363Z,33.73
2023-05-10T13:19:09.877Z,33.54
2023-05-10T13:20:44.396Z,33.70
2023-05-10T13:22:25.600Z,33.76
2023-05-10T13:24:07.263Z,33.88
2023-05-10T13:25:40.880Z,33.94
2023-05-10T13:27:14.274Z,33.91
2023-05-10T13:28:47.588Z,34.01
2023-05-10T13:30:20.828Z,33.85
2023-05-10T13:31:54.517Z,33.96
2023-05-10T13:33:27.829Z,33.99
2023-05-10T13:35:01.028Z,33.76
2023-05-10T13:36:34.455Z,33.70
2023-05-10T13:38:09.350Z,33.77
2023-05-10T13:39:42.674Z,33.88
2023-05-10T13:41:15.972Z,33.76
2023-05-10T13:42:49.244Z,33.94
2023-05-10T13:44:22.939Z,33.94
2023-05-10T13:45:56.220Z,33.90
2023-05-10T13:47:29.672Z,33.94
2023-05-10T13:49:03.442Z,33.96
2023-05-10T13:50:37.203Z,33.77
2023-05-10T13:52:11.383Z,33.87
2023-05-10T13:53:44.455Z,33.80
2023-05-10T13:55:17.861Z,33.83
2023-05-10T13:56:52.869Z,33.83
2023-05-10T13:58:26.054Z,33.92
2023-05-10T13:59:59.130Z,33.95
2023-05-10T14:01:32.669Z,33.91
2023-05-10T14:03:08.157Z,34.00
2023-05-10T14:04:41.510Z,34.01
2023-05-10T14:06:14.634Z,34.01
2023-05-10T14:07:48.041Z,34.13
2023-05-10T14:09:21.899Z,33.89
2023-05-10T14:10:55.251Z,33.92
2023-05-10T14:12:29.124Z,33.91
2023-05-10T14:14:02.638Z,33.88
2023-05-10T14:15:36.157Z,33.88
2023-05-10T14:17:11.444Z,33.94
2023-05-10T14:18:45.599Z,33.93
2023-05-10T14:20:18.805Z,34.18
2023-05-10T14:21:53.398Z,34.53
2023-05-10T14:23:27.053Z,35.49
2023-05-10T14:25:00.246Z,36.32
2023-05-10T14:26:33.732Z,37.02
2023-05-10T14:28:07.676Z,37.47
2023-05-10T14:29:41.031Z,37.54
2023-05-10T14:31:15.491Z,37.80
2023-05-10T14:32:48.709Z,38.06
2023-05-10T14:34:22.342Z,38.19
2023-05-10T14:35:58.126Z,38.50
2023-05-10T14:37:31.416Z,38.81
2023-05-10T14:39:05.311Z,39.07
2023-05-10T14:40:38.881Z,39.34
2023-05-10T14:42:11.926Z,39.56
2023-05-10T14:43:45.407Z,39.60
2023-05-10T14:45:21.855Z,39.80
2023-05-10T14:46:55.247Z,39.99
2023-05-10T14:48:28.415Z,40.11
2023-05-10T14:50:01.683Z,40.22
2023-05-10T14:51:34.980Z,40.32
2023-05-10T14:53:08.510Z,40.40
2023-05-10T14:54:41.912Z,40.61
2023-05-10T14:56:14.916Z,40.73
2023-05-10T14:57:48.866Z,41.06
2023-05-10T14:59:22.466Z,41.12
2023-05-10T15:00:56.298Z,41.32
2023-05-10T15:02:30.273Z,41.39
2023-05-10T15:04:05.135Z,41.91
2023-05-10T15:05:39.319Z,42.31
2023-05-10T15:07:15.742Z,42.82
2023-05-10T15:08:48.860Z,43.05
2023-05-10T15:10:22.032Z,43.32
2023-05-10T15:11:56.340Z,43.80
2023-05-10T15:13:29.628Z,44.22
2023-05-10T15:15:03.456Z,44.34
2023-05-10T15:16:37.118Z,44.71
2023-05-10T15:18:11.593Z,44.91
2023-05-10T15:19:44.856Z,44.99
2023-05-10T15:21:17.970Z,45.25
2023-05-10T15:22:51.245Z,45.58
2023-05-10T15:24:24.750Z,45.73
2023-05-10T15:25:58.464Z,46.09
2023-05-10T15:27:31.598Z,46.23
2023-05-10T15:29:04.952Z,46.57
2023-05-10T15:30:38.252Z,46.82
2023-05-10T15:32:11.655Z,47.14
2023-05-10T15:33:45.019Z,47.44
2023-05-10T15:35:19.024Z,47.49
2023-05-10T15:36:52.366Z,48.02
2023-05-10T15:38:25.394Z,48.33
2023-05-10T15:40:05.085Z,48.68
2023-05-10T15:41:39.574Z,48.95
2023-05-10T15:43:12.949Z,49.22
2023-05-10T15:44:46.299Z,49.81
2023-05-10T15:46:19.591Z,50.02
2023-05-10T15:47:52.859Z,50.46
2023-05-10T15:49:26.146Z,50.93
2023-05-10T15:50:59.945Z,51.40
2023-05-10T15:52:33.657Z,52.06
2023-05-10T15:54:08.427Z,52.41
2023-05-10T15:55:41.971Z,52.99
2023-05-10T15:57:15.212Z,53.54
2023-05-10T15:58:48.518Z,54.11
2023-05-10T16:00:21.862Z,54.70
2023-05-10T16:01:55.105Z,55.26
2023-05-10T16:03:28.680Z,56.04
2023-05-10T16:05:02.175Z,56.29
2023-05-10T16:06:38.251Z,57.06
2023-05-10T16:08:11.581Z,57.65
2023-05-10T16:09:44.840Z,58.38
2023-05-10T16:11:17.992Z,58.90
2023-05-10T16:12:51.375Z,59.70
2023-05-10T16:14:25.229Z,60.04
2023-05-10T16:15:58.638Z,62.61
2023-05-10T16:17:32.604Z,63.88
2023-05-10T16:19:06.034Z,64.28
2023-05-10T16:20:39.386Z,65.03
2023-05-10T16:22:12.497Z,65.59
2023-05-10T16:23:46.921Z,66.77
2023-05-10T16:25:20.453Z,67.73
2023-05-10T16:26:53.828Z,67.88
2023-05-10T16:28:27.172Z,68.89
2023-05-10T16:30:00.718Z,69.90
2023-05-10T16:31:34.637Z,71.08
2023-05-10T16:33:08.460Z,72.06
2023-05-10T16:34:42.114Z,72.45
2023-05-10T16:36:15.408Z,73.17
2023-05-10T16:37:48.794Z,74.17
2023-05-10T16:39:22.185Z,74.38
2023-05-10T16:40:57.827Z,75.13
2023-05-10T16:42:31.143Z,75.48
2023-05-10T16:44:04.765Z,75.99
2023-05-10T16:45:38.008Z,76.52
2023-05-10T16:47:11.239Z,77.35
2023-05-10T16:48:44.496Z,78.08
2023-05-10T16:50:17.837Z,78.35
2023-05-10T16:51:50.991Z,78.62
2023-05-10T16:53:24.280Z,78.59
2023-05-10T16:54:57.563Z,79.25
2023-05-10T16:56:30.955Z,79.70
2023-05-10T16:58:04.245Z,80.39
2023-05-10T16:59:37.888Z,80.12
2023-05-10T17:01:11.438Z,80.20
2023-05-10T17:02:44.913Z,81.06
2023-05-10T17:04:18.810Z,81.39
2023-05-10T17:05:52.287Z,81.83
2023-05-10T17:07:26.357Z,81.67
2023-05-10T17:09:01.515Z,81.89
2023-05-10T17:10:35.111Z,82.16
2023-05-10T17:12:07.993Z,82.18
2023-05-10T17:13:41.493Z,81.96
2023-05-10T17:15:16.945Z,81.67
2023-05-10T17:16:53.215Z,81.59
2023-05-10T17:18:27.118Z,81.50
2023-05-10T17:20:01.001Z,81.70
2023-05-10T17:21:34.234Z,81.74
2023-05-10T17:23:07.567Z,82.26
2023-05-10T17:24:41.135Z,82.23
2023-05-10T17:26:14.178Z,82.74
2023-05-10T17:27:47.249Z,82.91
2023-05-10T17:29:20.437Z,83.01
2023-05-10T17:30:58.123Z,83.17
2023-05-10T17:32:31.482Z,83.36
2023-05-10T17:34:05.870Z,83.12
2023-05-10T17:35:39.075Z,83.50
2023-05-10T17:37:12.543Z,84.26
2023-05-10T17:38:45.572Z,84.12
2023-05-10T17:40:18.898Z,84.70
2023-05-10T17:41:53.283Z,85.23
2023-05-10T17:43:26.655Z,85.63
2023-05-10T17:45:00.007Z,85.38
2023-05-10T17:46:33.912Z,85.74
2023-05-10T17:48:08.297Z,85.30
2023-05-10T17:49:41.732Z,85.50
2023-05-10T17:51:15.746Z,86.58
2023-05-10T17:52:49.138Z,86.71
2023-05-10T17:54:25.231Z,87.79
2023-05-10T17:55:59.259Z,87.65
2023-05-10T17:57:32.558Z,89.21
2023-05-10T17:59:05.991Z,90.46
2023-05-10T18:00:40.459Z,89.64
2023-05-10T18:02:14.625Z,90.70
2023-05-10T18:03:49.971Z,91.24
2023-05-10T18:05:24.498Z,92.27
2023-05-10T18:07:02.005Z,93.40
2023-05-10T18:08:35.262Z,96.42
2023-05-10T18:10:09.202Z,96.41
2023-05-10T18:11:58.564Z,95.67
2023-05-10T18:13:32.605Z,94.04
2023-05-10T18:15:09.353Z,94.75
2023-05-10T18:16:43.546Z,92.93
2023-05-10T18:18:17.501Z,95.04
2023-05-10T18:19:50.715Z,93.70
2023-05-10T18:21:23.874Z,92.78
2023-05-10T18:22:58.162Z,93.90
2023-05-10T18:24:38.366Z,93.63
2023-05-10T18:26:13.668Z,94.21
2023-05-10T18:27:46.931Z,94.47
2023-05-10T18:29:20.070Z,94.56
2023-05-10T18:30:54.736Z,93.43
2023-05-10T18:32:28.327Z,94.44
2023-05-10T18:34:01.585Z,93.87
2023-05-10T18:35:37.821Z,94.52
2023-05-10T18:37:34.452Z,95.96
2023-05-10T18:39:31.232Z,97.87
2023-05-10T18:41:04.587Z,99.44
2023-05-10T18:42:37.784Z,100.00
2023-05-10T18:44:13.757Z,100.00
2023-05-10T18:45:51.320Z,100.00
2023-05-10T18:47:26.496Z,100.00
2023-05-10T18:49:01.125Z,100.00
2023-05-10T18:50:34.321Z,100.00
2023-05-10T18:52:07.001Z,100.00
2023-05-10T18:53:40.945Z,100.00
2023-05-10T18:55:14.981Z,100.00
2023-05-10T18:56:50.130Z,100.00
2023-05-10T18:58:23.128Z,100.00
2023-05-10T18:59:56.382Z,100.00
2023-05-10T19:01:29.779Z,100.00
2023-05-10T19:03:02.893Z,100.00
2023-05-10T19:04:36.149Z,100.00
2023-05-10T19:06:09.720Z,100.00
2023-05-10T19:07:44.509Z,100.00
2023-05-10T19:09:20.328Z,100.00
2023-05-10T19:10:53.485Z,100.00
2023-05-10T19:12:26.854Z,100.00
2023-05-10T19:14:00.243Z,100.00
2023-05-10T19:15:33.843Z,100.00
2023-05-10T19:17:07.136Z,100.00
2023-05-10T19:18:40.716Z,100.00
2023-05-10T19:20:14.630Z,100.00
2023-05-10T19:21:48.555Z,100.00
2023-05-10T19:23:21.936Z,100.00
2023-05-10T19:24:55.362Z,100.00
2023-05-10T19:28:53.059Z,100.00
2023-05-10T19:30:27.068Z,100.00
2023-05-10T19:32:01.219Z,100.00
2023-05-10T19:33:34.667Z,100.00
2023-05-10T19:35:08.218Z,100.00
2023-05-10T19:36:41.485Z,100.00
2023-05-10T19:38:14.855Z,100.00
2023-05-10T19:39:48.092Z,100.00
2023-05-10T19:41:44.798Z,100.00
2023-05-10T19:43:18.138Z,100.00
2023-05-10T19:44:51.286Z,100.00
2023-05-10T19:46:24.606Z,100.00
2023-05-10T19:47:58.305Z,100.00
2023-05-10T19:49:31.953Z,100.00
2023-05-10T19:51:09.302Z,100.00
2023-05-10T19:52:43.431Z,100.00
2023-05-10T19:54:16.913Z,100.00
2023-05-10T19:55:50.214Z,100.00
2023-05-10T19:57:23.341Z,100.00
2023-05-10T19:58:56.533Z,100.00
2023-05-10T20:00:30.027Z,100.00
2023-05-10T20:02:03.363Z,100.00
2023-05-10T20:03:37.081Z,100.00
2023-05-10T20:05:10.775Z,100.00
2023-05-10T20:06:43.867Z,100.00
2023-05-10T20:08:17.269Z,100.00
2023-05-10T20:09:50.676Z,100.00
2023-05-10T20:11:33.158Z,100.00
2023-05-10T20:13:06.523Z,100.00
2023-05-10T20:14:40.071Z,100.00
2023-05-10T20:16:13.520Z,100.00
2023-05-10T20:17:47.850Z,100.00
2023-05-10T20:19:21.387Z,100.00
2023-05-10T20:21:00.246Z,100.00
2023-05-10T20:22:33.492Z,100.00
2023-05-10T20:24:09.434Z,100.00
2023-05-10T20:25:42.852Z,100.00
2023-05-10T20:27:16.062Z,100.00
2023-05-10T20:28:49.274Z,100.00
2023-05-10T20:30:23.229Z,100.00
2023-05-10T20:31:56.973Z,100.00